sensor_id;sensor_type;location;lat;lon;timestamp;P1;durP1;ratioP1;P2;durP2;ratioP2
5507;SDS011;2776;51.046;6.772;2023-04-06T00:00:05;12.73;;;10.00;;
5507;SDS011;2776;51.046;6.772;2023-04-06T00:02:35;16.47;;;10.87;;
5507;SDS011;2776;51.046;6.772;2023-04-06T00:05:02;13.77;;;10.47;;
5507;SDS011;2776;51.046;6.772;2023-04-06T00:07:29;16.63;;;10.77;;
5507;SDS011;2776;51.046;6.772;2023-04-06T00:09:58;15.80;;;10.60;;
5507;SDS011;2776;51.046;6.772;2023-04-06T00:12:25;14.27;;;9.77;;
5507;SDS011;2776;51.046;6.772;2023-04-06T00:14:51;13.97;;;11.00;;
5507;SDS011;2776;51.046;6.772;2023-04-06T00:17:18;14.93;;;11.13;;
5507;SDS011;2776;51.046;6.772;2023-04-06T00:19:47;16.23;;;11.60;;
5507;SDS011;2776;51.046;6.772;2023-04-06T00:22:14;13.63;;;11.07;;
5507;SDS011;2776;51.046;6.772;2023-04-06T00:24:40;17.27;;;11.47;;
5507;SDS011;2776;51.046;6.772;2023-04-06T00:27:07;14.83;;;11.00;;
5507;SDS011;2776;51.046;6.772;2023-04-06T00:29:34;14.07;;;10.80;;
5507;SDS011;2776;51.046;6.772;2023-04-06T00:32:01;12.93;;;10.80;;
5507;SDS011;2776;51.046;6.772;2023-04-06T00:34:28;14.00;;;10.87;;
5507;SDS011;2776;51.046;6.772;2023-04-06T00:36:56;16.83;;;11.47;;
5507;SDS011;2776;51.046;6.772;2023-04-06T00:39:23;14.80;;;11.07;;
5507;SDS011;2776;51.046;6.772;2023-04-06T00:41:50;17.83;;;11.73;;
5507;SDS011;2776;51.046;6.772;2023-04-06T00:44:18;22.07;;;11.67;;
5507;SDS011;2776;51.046;6.772;2023-04-06T00:46:45;14.73;;;11.17;;
5507;SDS011;2776;51.046;6.772;2023-04-06T00:49:12;15.37;;;11.10;;
5507;SDS011;2776;51.046;6.772;2023-04-06T00:51:39;16.67;;;10.53;;
5507;SDS011;2776;51.046;6.772;2023-04-06T00:54:07;15.40;;;11.37;;
5507;SDS011;2776;51.046;6.772;2023-04-06T00:56:34;15.33;;;11.70;;
5507;SDS011;2776;51.046;6.772;2023-04-06T00:59:01;16.30;;;10.83;;
5507;SDS011;2776;51.046;6.772;2023-04-06T01:01:28;16.20;;;10.83;;
5507;SDS011;2776;51.046;6.772;2023-04-06T01:03:57;13.67;;;10.33;;
5507;SDS011;2776;51.046;6.772;2023-04-06T01:06:24;18.23;;;11.67;;
5507;SDS011;2776;51.046;6.772;2023-04-06T01:08:51;16.10;;;12.07;;
5507;SDS011;2776;51.046;6.772;2023-04-06T01:11:19;16.30;;;11.07;;
5507;SDS011;2776;51.046;6.772;2023-04-06T01:13:46;17.93;;;10.60;;
5507;SDS011;2776;51.046;6.772;2023-04-06T01:16:13;17.03;;;11.97;;
5507;SDS011;2776;51.046;6.772;2023-04-06T01:18:40;15.83;;;11.30;;
5507;SDS011;2776;51.046;6.772;2023-04-06T01:21:08;18.57;;;11.37;;
5507;SDS011;2776;51.046;6.772;2023-04-06T01:23:41;16.30;;;11.27;;
5507;SDS011;2776;51.046;6.772;2023-04-06T01:26:09;14.90;;;10.93;;
5507;SDS011;2776;51.046;6.772;2023-04-06T01:28:35;15.63;;;11.10;;
5507;SDS011;2776;51.046;6.772;2023-04-06T01:31:03;13.57;;;9.63;;
5507;SDS011;2776;51.046;6.772;2023-04-06T01:33:30;12.13;;;9.10;;
5507;SDS011;2776;51.046;6.772;2023-04-06T01:35:57;12.47;;;9.10;;
5507;SDS011;2776;51.046;6.772;2023-04-06T01:38:24;13.17;;;8.50;;
5507;SDS011;2776;51.046;6.772;2023-04-06T01:40:53;13.60;;;10.07;;
5507;SDS011;2776;51.046;6.772;2023-04-06T01:43:20;12.93;;;9.40;;
5507;SDS011;2776;51.046;6.772;2023-04-06T01:45:47;15.77;;;10.93;;
5507;SDS011;2776;51.046;6.772;2023-04-06T01:48:14;14.73;;;9.77;;
5507;SDS011;2776;51.046;6.772;2023-04-06T01:50:41;14.57;;;10.90;;
5507;SDS011;2776;51.046;6.772;2023-04-06T01:53:08;14.80;;;10.47;;
5507;SDS011;2776;51.046;6.772;2023-04-06T01:55:35;13.53;;;10.57;;
5507;SDS011;2776;51.046;6.772;2023-04-06T01:58:03;16.13;;;10.70;;
5507;SDS011;2776;51.046;6.772;2023-04-06T02:00:30;12.57;;;9.20;;
5507;SDS011;2776;51.046;6.772;2023-04-06T02:02:57;13.00;;;8.93;;
5507;SDS011;2776;51.046;6.772;2023-04-06T02:05:24;14.77;;;8.37;;
5507;SDS011;2776;51.046;6.772;2023-04-06T02:07:51;12.00;;;9.37;;
5507;SDS011;2776;51.046;6.772;2023-04-06T02:10:18;10.50;;;8.77;;
5507;SDS011;2776;51.046;6.772;2023-04-06T02:12:45;15.00;;;9.37;;
5507;SDS011;2776;51.046;6.772;2023-04-06T02:15:13;16.70;;;10.40;;
5507;SDS011;2776;51.046;6.772;2023-04-06T02:17:40;18.63;;;11.43;;
5507;SDS011;2776;51.046;6.772;2023-04-06T02:20:07;16.67;;;11.80;;
5507;SDS011;2776;51.046;6.772;2023-04-06T02:22:35;16.27;;;11.10;;
5507;SDS011;2776;51.046;6.772;2023-04-06T02:25:02;14.70;;;10.50;;
5507;SDS011;2776;51.046;6.772;2023-04-06T02:27:29;13.33;;;10.53;;
5507;SDS011;2776;51.046;6.772;2023-04-06T02:29:56;14.60;;;10.63;;
5507;SDS011;2776;51.046;6.772;2023-04-06T02:32:24;14.03;;;10.40;;
5507;SDS011;2776;51.046;6.772;2023-04-06T02:34:51;14.00;;;10.67;;
5507;SDS011;2776;51.046;6.772;2023-04-06T02:37:18;15.83;;;12.20;;
5507;SDS011;2776;51.046;6.772;2023-04-06T02:39:45;13.93;;;10.87;;
5507;SDS011;2776;51.046;6.772;2023-04-06T02:42:12;14.20;;;10.10;;
5507;SDS011;2776;51.046;6.772;2023-04-06T02:44:40;17.33;;;11.20;;
5507;SDS011;2776;51.046;6.772;2023-04-06T02:47:07;15.43;;;10.30;;
5507;SDS011;2776;51.046;6.772;2023-04-06T02:49:35;20.77;;;10.87;;
5507;SDS011;2776;51.046;6.772;2023-04-06T02:52:02;17.87;;;11.07;;
5507;SDS011;2776;51.046;6.772;2023-04-06T02:54:29;18.07;;;11.50;;
5507;SDS011;2776;51.046;6.772;2023-04-06T02:56:56;14.40;;;10.20;;
5507;SDS011;2776;51.046;6.772;2023-04-06T02:59:23;14.30;;;10.70;;
5507;SDS011;2776;51.046;6.772;2023-04-06T03:01:50;14.20;;;10.20;;
5507;SDS011;2776;51.046;6.772;2023-04-06T03:04:17;16.37;;;11.03;;
5507;SDS011;2776;51.046;6.772;2023-04-06T03:06:46;14.97;;;9.73;;
5507;SDS011;2776;51.046;6.772;2023-04-06T03:09:12;13.90;;;10.47;;
5507;SDS011;2776;51.046;6.772;2023-04-06T03:11:40;13.23;;;10.80;;
5507;SDS011;2776;51.046;6.772;2023-04-06T03:14:07;13.63;;;10.50;;
5507;SDS011;2776;51.046;6.772;2023-04-06T03:16:33;16.07;;;11.50;;
5507;SDS011;2776;51.046;6.772;2023-04-06T03:19:00;21.37;;;13.90;;
5507;SDS011;2776;51.046;6.772;2023-04-06T03:21:27;18.30;;;12.77;;
5507;SDS011;2776;51.046;6.772;2023-04-06T03:23:55;21.70;;;13.40;;
5507;SDS011;2776;51.046;6.772;2023-04-06T03:26:22;21.10;;;13.10;;
5507;SDS011;2776;51.046;6.772;2023-04-06T03:28:49;18.83;;;12.93;;
5507;SDS011;2776;51.046;6.772;2023-04-06T03:31:16;16.67;;;12.30;;
5507;SDS011;2776;51.046;6.772;2023-04-06T03:33:42;19.33;;;12.03;;
5507;SDS011;2776;51.046;6.772;2023-04-06T03:36:10;16.33;;;11.87;;
5507;SDS011;2776;51.046;6.772;2023-04-06T03:38:36;20.50;;;11.87;;
5507;SDS011;2776;51.046;6.772;2023-04-06T03:41:05;19.67;;;12.27;;
5507;SDS011;2776;51.046;6.772;2023-04-06T03:43:31;18.97;;;12.90;;
5507;SDS011;2776;51.046;6.772;2023-04-06T03:45:58;16.83;;;12.07;;
5507;SDS011;2776;51.046;6.772;2023-04-06T03:48:25;20.90;;;12.97;;
5507;SDS011;2776;51.046;6.772;2023-04-06T03:50:52;17.97;;;12.27;;
5507;SDS011;2776;51.046;6.772;2023-04-06T03:53:19;19.53;;;12.70;;
5507;SDS011;2776;51.046;6.772;2023-04-06T03:55:46;18.57;;;12.13;;
5507;SDS011;2776;51.046;6.772;2023-04-06T03:58:14;23.93;;;12.63;;
5507;SDS011;2776;51.046;6.772;2023-04-06T04:00:41;18.90;;;12.83;;
5507;SDS011;2776;51.046;6.772;2023-04-06T04:03:07;20.03;;;11.67;;
5507;SDS011;2776;51.046;6.772;2023-04-06T04:05:34;17.67;;;11.83;;
5507;SDS011;2776;51.046;6.772;2023-04-06T04:08:01;16.93;;;11.73;;
5507;SDS011;2776;51.046;6.772;2023-04-06T04:10:28;16.27;;;12.17;;
5507;SDS011;2776;51.046;6.772;2023-04-06T04:12:55;17.70;;;12.03;;
5507;SDS011;2776;51.046;6.772;2023-04-06T04:15:23;18.00;;;11.80;;
5507;SDS011;2776;51.046;6.772;2023-04-06T04:17:50;15.40;;;11.17;;
5507;SDS011;2776;51.046;6.772;2023-04-06T04:20:16;16.43;;;11.30;;
5507;SDS011;2776;51.046;6.772;2023-04-06T04:22:43;15.93;;;11.67;;
5507;SDS011;2776;51.046;6.772;2023-04-06T04:25:10;16.43;;;11.83;;
5507;SDS011;2776;51.046;6.772;2023-04-06T04:27:37;21.00;;;11.97;;
5507;SDS011;2776;51.046;6.772;2023-04-06T04:30:04;14.43;;;10.87;;
5507;SDS011;2776;51.046;6.772;2023-04-06T04:32:33;21.57;;;11.80;;
5507;SDS011;2776;51.046;6.772;2023-04-06T04:35:00;18.40;;;11.67;;
5507;SDS011;2776;51.046;6.772;2023-04-06T04:37:27;16.03;;;11.80;;
5507;SDS011;2776;51.046;6.772;2023-04-06T04:39:54;18.67;;;11.43;;
5507;SDS011;2776;51.046;6.772;2023-04-06T04:42:21;14.77;;;10.80;;
5507;SDS011;2776;51.046;6.772;2023-04-06T04:44:48;15.13;;;11.67;;
5507;SDS011;2776;51.046;6.772;2023-04-06T04:47:14;14.13;;;10.60;;
5507;SDS011;2776;51.046;6.772;2023-04-06T04:49:43;19.33;;;11.87;;
5507;SDS011;2776;51.046;6.772;2023-04-06T04:52:10;15.97;;;11.93;;
5507;SDS011;2776;51.046;6.772;2023-04-06T04:54:37;17.37;;;12.63;;
5507;SDS011;2776;51.046;6.772;2023-04-06T04:57:06;15.60;;;11.43;;
5507;SDS011;2776;51.046;6.772;2023-04-06T04:59:33;15.50;;;11.10;;
5507;SDS011;2776;51.046;6.772;2023-04-06T05:02:00;16.40;;;10.77;;
5507;SDS011;2776;51.046;6.772;2023-04-06T05:04:27;14.47;;;11.10;;
5507;SDS011;2776;51.046;6.772;2023-04-06T05:07:03;16.27;;;10.57;;
5507;SDS011;2776;51.046;6.772;2023-04-06T05:09:30;16.30;;;11.23;;
5507;SDS011;2776;51.046;6.772;2023-04-06T05:11:57;14.47;;;10.20;;
5507;SDS011;2776;51.046;6.772;2023-04-06T05:14:24;13.30;;;9.80;;
5507;SDS011;2776;51.046;6.772;2023-04-06T05:16:51;14.33;;;10.13;;
5507;SDS011;2776;51.046;6.772;2023-04-06T05:19:18;13.07;;;9.50;;
5507;SDS011;2776;51.046;6.772;2023-04-06T05:21:45;14.17;;;10.37;;
5507;SDS011;2776;51.046;6.772;2023-04-06T05:24:14;13.97;;;10.07;;
5507;SDS011;2776;51.046;6.772;2023-04-06T05:26:40;13.63;;;8.60;;
5507;SDS011;2776;51.046;6.772;2023-04-06T05:29:07;14.80;;;9.27;;
5507;SDS011;2776;51.046;6.772;2023-04-06T05:31:34;11.53;;;8.33;;
5507;SDS011;2776;51.046;6.772;2023-04-06T05:34:01;11.47;;;9.10;;
5507;SDS011;2776;51.046;6.772;2023-04-06T05:36:28;12.27;;;9.23;;
5507;SDS011;2776;51.046;6.772;2023-04-06T05:38:55;12.37;;;8.80;;
5507;SDS011;2776;51.046;6.772;2023-04-06T05:41:24;11.50;;;8.67;;
5507;SDS011;2776;51.046;6.772;2023-04-06T05:43:51;10.33;;;8.00;;
5507;SDS011;2776;51.046;6.772;2023-04-06T05:46:18;12.30;;;8.00;;
5507;SDS011;2776;51.046;6.772;2023-04-06T05:48:44;11.67;;;8.60;;
5507;SDS011;2776;51.046;6.772;2023-04-06T05:51:11;10.80;;;7.90;;
5507;SDS011;2776;51.046;6.772;2023-04-06T05:53:38;11.23;;;7.70;;
5507;SDS011;2776;51.046;6.772;2023-04-06T05:56:05;9.40;;;7.30;;
5507;SDS011;2776;51.046;6.772;2023-04-06T05:58:34;9.30;;;7.20;;
5507;SDS011;2776;51.046;6.772;2023-04-06T06:01:00;8.57;;;7.30;;
5507;SDS011;2776;51.046;6.772;2023-04-06T06:03:28;10.43;;;7.30;;
5507;SDS011;2776;51.046;6.772;2023-04-06T06:05:59;9.40;;;7.23;;
5507;SDS011;2776;51.046;6.772;2023-04-06T06:08:26;11.13;;;7.43;;
5507;SDS011;2776;51.046;6.772;2023-04-06T06:10:53;9.80;;;7.50;;
5507;SDS011;2776;51.046;6.772;2023-04-06T06:13:20;9.63;;;7.00;;
5507;SDS011;2776;51.046;6.772;2023-04-06T06:15:48;8.37;;;6.87;;
5507;SDS011;2776;51.046;6.772;2023-04-06T06:18:15;8.80;;;7.53;;
5507;SDS011;2776;51.046;6.772;2023-04-06T06:20:42;8.20;;;7.40;;
5507;SDS011;2776;51.046;6.772;2023-04-06T06:23:09;10.47;;;6.73;;
5507;SDS011;2776;51.046;6.772;2023-04-06T06:25:36;9.50;;;7.43;;
5507;SDS011;2776;51.046;6.772;2023-04-06T06:28:03;10.07;;;7.10;;
5507;SDS011;2776;51.046;6.772;2023-04-06T06:30:30;11.90;;;7.57;;
5507;SDS011;2776;51.046;6.772;2023-04-06T06:32:58;7.63;;;6.80;;
5507;SDS011;2776;51.046;6.772;2023-04-06T06:35:25;8.30;;;6.93;;
5507;SDS011;2776;51.046;6.772;2023-04-06T06:37:52;8.10;;;6.73;;
5507;SDS011;2776;51.046;6.772;2023-04-06T06:40:18;9.73;;;7.17;;
5507;SDS011;2776;51.046;6.772;2023-04-06T06:42:48;10.43;;;7.50;;
5507;SDS011;2776;51.046;6.772;2023-04-06T06:45:15;11.13;;;7.43;;
5507;SDS011;2776;51.046;6.772;2023-04-06T06:47:42;10.63;;;7.20;;
5507;SDS011;2776;51.046;6.772;2023-04-06T06:50:11;9.10;;;7.37;;
5507;SDS011;2776;51.046;6.772;2023-04-06T06:52:38;11.40;;;7.60;;
5507;SDS011;2776;51.046;6.772;2023-04-06T06:55:06;9.60;;;7.10;;
5507;SDS011;2776;51.046;6.772;2023-04-06T06:57:34;9.73;;;7.27;;
5507;SDS011;2776;51.046;6.772;2023-04-06T07:00:01;8.23;;;7.07;;
5507;SDS011;2776;51.046;6.772;2023-04-06T07:02:28;9.13;;;7.03;;
5507;SDS011;2776;51.046;6.772;2023-04-06T07:04:55;8.13;;;7.27;;
5507;SDS011;2776;51.046;6.772;2023-04-06T07:07:24;9.40;;;7.10;;
5507;SDS011;2776;51.046;6.772;2023-04-06T07:09:51;9.73;;;6.70;;
5507;SDS011;2776;51.046;6.772;2023-04-06T07:12:17;9.80;;;6.43;;
5507;SDS011;2776;51.046;6.772;2023-04-06T07:14:44;8.73;;;7.20;;
5507;SDS011;2776;51.046;6.772;2023-04-06T07:17:11;7.90;;;7.10;;
5507;SDS011;2776;51.046;6.772;2023-04-06T07:19:38;11.83;;;7.50;;
5507;SDS011;2776;51.046;6.772;2023-04-06T07:22:05;9.27;;;7.90;;
5507;SDS011;2776;51.046;6.772;2023-04-06T07:24:34;11.63;;;8.07;;
5507;SDS011;2776;51.046;6.772;2023-04-06T07:27:00;10.93;;;7.80;;
5507;SDS011;2776;51.046;6.772;2023-04-06T07:29:27;9.10;;;6.93;;
5507;SDS011;2776;51.046;6.772;2023-04-06T07:31:54;12.53;;;7.57;;
5507;SDS011;2776;51.046;6.772;2023-04-06T07:34:21;9.53;;;7.77;;
5507;SDS011;2776;51.046;6.772;2023-04-06T07:36:48;9.50;;;7.83;;
5507;SDS011;2776;51.046;6.772;2023-04-06T07:39:17;9.07;;;7.97;;
5507;SDS011;2776;51.046;6.772;2023-04-06T07:41:46;8.53;;;7.27;;
5507;SDS011;2776;51.046;6.772;2023-04-06T07:44:13;17.70;;;8.27;;
5507;SDS011;2776;51.046;6.772;2023-04-06T07:46:40;10.13;;;7.27;;
5507;SDS011;2776;51.046;6.772;2023-04-06T07:49:06;10.80;;;7.83;;
5507;SDS011;2776;51.046;6.772;2023-04-06T07:51:35;9.13;;;7.33;;
5507;SDS011;2776;51.046;6.772;2023-04-06T07:54:03;11.03;;;7.70;;
5507;SDS011;2776;51.046;6.772;2023-04-06T07:56:30;12.63;;;8.10;;
5507;SDS011;2776;51.046;6.772;2023-04-06T07:58:58;9.37;;;8.33;;
5507;SDS011;2776;51.046;6.772;2023-04-06T08:01:26;9.90;;;7.17;;
5507;SDS011;2776;51.046;6.772;2023-04-06T08:03:53;13.50;;;9.17;;
5507;SDS011;2776;51.046;6.772;2023-04-06T08:06:20;9.97;;;8.00;;
5507;SDS011;2776;51.046;6.772;2023-04-06T08:08:47;9.50;;;7.80;;
5507;SDS011;2776;51.046;6.772;2023-04-06T08:11:14;13.00;;;8.30;;
5507;SDS011;2776;51.046;6.772;2023-04-06T08:13:41;9.47;;;8.03;;
5507;SDS011;2776;51.046;6.772;2023-04-06T08:16:09;10.83;;;8.40;;
5507;SDS011;2776;51.046;6.772;2023-04-06T08:18:36;10.60;;;8.30;;
5507;SDS011;2776;51.046;6.772;2023-04-06T08:21:03;12.60;;;8.17;;
5507;SDS011;2776;51.046;6.772;2023-04-06T08:23:30;13.27;;;8.57;;
5507;SDS011;2776;51.046;6.772;2023-04-06T08:25:57;10.43;;;9.00;;
5507;SDS011;2776;51.046;6.772;2023-04-06T08:28:24;10.70;;;8.33;;
5507;SDS011;2776;51.046;6.772;2023-04-06T08:30:50;11.10;;;8.33;;
5507;SDS011;2776;51.046;6.772;2023-04-06T08:33:19;10.90;;;8.67;;
5507;SDS011;2776;51.046;6.772;2023-04-06T08:35:47;11.37;;;9.00;;
5507;SDS011;2776;51.046;6.772;2023-04-06T08:38:14;11.43;;;7.90;;
5507;SDS011;2776;51.046;6.772;2023-04-06T08:40:41;12.00;;;8.83;;
5507;SDS011;2776;51.046;6.772;2023-04-06T08:43:11;12.13;;;8.30;;
5507;SDS011;2776;51.046;6.772;2023-04-06T08:45:40;12.20;;;9.10;;
5507;SDS011;2776;51.046;6.772;2023-04-06T08:48:08;12.57;;;9.17;;
5507;SDS011;2776;51.046;6.772;2023-04-06T08:50:37;12.23;;;9.23;;
5507;SDS011;2776;51.046;6.772;2023-04-06T08:53:04;12.27;;;8.73;;
5507;SDS011;2776;51.046;6.772;2023-04-06T08:55:32;11.90;;;9.30;;
5507;SDS011;2776;51.046;6.772;2023-04-06T08:57:59;11.67;;;8.73;;
5507;SDS011;2776;51.046;6.772;2023-04-06T09:00:27;11.77;;;9.37;;
5507;SDS011;2776;51.046;6.772;2023-04-06T09:02:55;12.13;;;9.30;;
5507;SDS011;2776;51.046;6.772;2023-04-06T09:05:23;11.37;;;9.03;;
5507;SDS011;2776;51.046;6.772;2023-04-06T09:07:53;13.23;;;9.50;;
5507;SDS011;2776;51.046;6.772;2023-04-06T09:10:20;12.77;;;9.40;;
5507;SDS011;2776;51.046;6.772;2023-04-06T09:12:48;10.27;;;8.77;;
5507;SDS011;2776;51.046;6.772;2023-04-06T09:15:18;11.53;;;9.53;;
5507;SDS011;2776;51.046;6.772;2023-04-06T09:17:46;11.93;;;9.13;;
5507;SDS011;2776;51.046;6.772;2023-04-06T09:20:13;15.43;;;9.50;;
5507;SDS011;2776;51.046;6.772;2023-04-06T09:22:42;15.47;;;9.50;;
5507;SDS011;2776;51.046;6.772;2023-04-06T09:25:17;15.87;;;10.33;;
5507;SDS011;2776;51.046;6.772;2023-04-06T09:27:45;11.77;;;8.83;;
5507;SDS011;2776;51.046;6.772;2023-04-06T09:30:12;16.83;;;9.70;;
5507;SDS011;2776;51.046;6.772;2023-04-06T09:32:45;12.73;;;9.37;;
5507;SDS011;2776;51.046;6.772;2023-04-06T09:35:13;14.17;;;9.23;;
5507;SDS011;2776;51.046;6.772;2023-04-06T09:37:41;12.00;;;9.20;;
5507;SDS011;2776;51.046;6.772;2023-04-06T09:40:10;11.57;;;9.13;;
5507;SDS011;2776;51.046;6.772;2023-04-06T09:42:39;13.53;;;9.57;;
5507;SDS011;2776;51.046;6.772;2023-04-06T09:45:07;13.50;;;8.93;;
5507;SDS011;2776;51.046;6.772;2023-04-06T09:47:35;14.67;;;9.00;;
5507;SDS011;2776;51.046;6.772;2023-04-06T09:50:05;12.60;;;9.73;;
5507;SDS011;2776;51.046;6.772;2023-04-06T09:52:37;12.13;;;9.07;;
5507;SDS011;2776;51.046;6.772;2023-04-06T09:55:06;12.17;;;10.20;;
5507;SDS011;2776;51.046;6.772;2023-04-06T09:57:37;12.47;;;9.70;;
5507;SDS011;2776;51.046;6.772;2023-04-06T10:00:12;13.57;;;9.13;;
5507;SDS011;2776;51.046;6.772;2023-04-06T10:02:45;13.90;;;10.30;;
5507;SDS011;2776;51.046;6.772;2023-04-06T10:05:19;14.10;;;10.40;;
5507;SDS011;2776;51.046;6.772;2023-04-06T10:07:54;15.43;;;10.13;;
5507;SDS011;2776;51.046;6.772;2023-04-06T10:10:25;13.07;;;9.43;;
5507;SDS011;2776;51.046;6.772;2023-04-06T10:12:54;14.33;;;10.00;;
5507;SDS011;2776;51.046;6.772;2023-04-06T10:15:22;14.57;;;11.23;;
5507;SDS011;2776;51.046;6.772;2023-04-06T10:17:49;15.20;;;9.70;;
5507;SDS011;2776;51.046;6.772;2023-04-06T10:20:18;15.97;;;9.60;;
5507;SDS011;2776;51.046;6.772;2023-04-06T10:22:50;15.47;;;10.97;;
5507;SDS011;2776;51.046;6.772;2023-04-06T10:25:31;17.53;;;11.77;;
5507;SDS011;2776;51.046;6.772;2023-04-06T10:28:00;13.50;;;9.60;;
5507;SDS011;2776;51.046;6.772;2023-04-06T10:30:28;15.13;;;10.60;;
5507;SDS011;2776;51.046;6.772;2023-04-06T10:32:55;14.30;;;10.40;;
5507;SDS011;2776;51.046;6.772;2023-04-06T10:35:22;16.87;;;10.63;;
5507;SDS011;2776;51.046;6.772;2023-04-06T10:37:50;15.73;;;9.87;;
5507;SDS011;2776;51.046;6.772;2023-04-06T10:40:19;15.00;;;9.90;;
5507;SDS011;2776;51.046;6.772;2023-04-06T10:42:48;15.70;;;10.13;;
5507;SDS011;2776;51.046;6.772;2023-04-06T10:45:20;15.33;;;10.23;;
5507;SDS011;2776;51.046;6.772;2023-04-06T10:47:48;14.13;;;10.27;;
5507;SDS011;2776;51.046;6.772;2023-04-06T10:50:15;18.23;;;10.37;;
5507;SDS011;2776;51.046;6.772;2023-04-06T10:52:43;14.00;;;9.70;;
5507;SDS011;2776;51.046;6.772;2023-04-06T10:55:11;14.50;;;9.93;;
5507;SDS011;2776;51.046;6.772;2023-04-06T10:57:39;15.10;;;10.57;;
5507;SDS011;2776;51.046;6.772;2023-04-06T11:00:07;14.87;;;10.57;;
5507;SDS011;2776;51.046;6.772;2023-04-06T11:02:36;16.40;;;10.93;;
5507;SDS011;2776;51.046;6.772;2023-04-06T11:05:04;14.43;;;10.30;;
5507;SDS011;2776;51.046;6.772;2023-04-06T11:07:31;15.33;;;10.67;;
5507;SDS011;2776;51.046;6.772;2023-04-06T11:09:58;15.00;;;10.33;;
5507;SDS011;2776;51.046;6.772;2023-04-06T11:12:26;15.23;;;10.57;;
5507;SDS011;2776;51.046;6.772;2023-04-06T11:14:54;16.40;;;10.63;;
5507;SDS011;2776;51.046;6.772;2023-04-06T11:17:26;13.60;;;9.90;;
5507;SDS011;2776;51.046;6.772;2023-04-06T11:19:54;15.03;;;10.70;;
5507;SDS011;2776;51.046;6.772;2023-04-06T11:22:21;12.97;;;10.07;;
5507;SDS011;2776;51.046;6.772;2023-04-06T11:24:48;16.43;;;11.03;;
5507;SDS011;2776;51.046;6.772;2023-04-06T11:27:15;14.43;;;10.30;;
5507;SDS011;2776;51.046;6.772;2023-04-06T11:29:43;18.80;;;11.10;;
5507;SDS011;2776;51.046;6.772;2023-04-06T11:32:11;15.13;;;10.47;;
5507;SDS011;2776;51.046;6.772;2023-04-06T11:34:46;15.40;;;10.13;;
5507;SDS011;2776;51.046;6.772;2023-04-06T11:37:15;16.47;;;10.40;;
5507;SDS011;2776;51.046;6.772;2023-04-06T11:39:43;12.37;;;9.63;;
5507;SDS011;2776;51.046;6.772;2023-04-06T11:42:20;16.43;;;9.70;;
5507;SDS011;2776;51.046;6.772;2023-04-06T11:44:49;13.20;;;9.70;;
5507;SDS011;2776;51.046;6.772;2023-04-06T11:47:18;13.33;;;9.30;;
5507;SDS011;2776;51.046;6.772;2023-04-06T11:49:47;13.27;;;9.63;;
5507;SDS011;2776;51.046;6.772;2023-04-06T11:52:17;16.07;;;9.73;;
5507;SDS011;2776;51.046;6.772;2023-04-06T11:54:45;14.17;;;9.20;;
5507;SDS011;2776;51.046;6.772;2023-04-06T11:57:13;14.20;;;9.63;;
5507;SDS011;2776;51.046;6.772;2023-04-06T11:59:41;13.43;;;9.73;;
5507;SDS011;2776;51.046;6.772;2023-04-06T12:02:09;13.43;;;9.67;;
5507;SDS011;2776;51.046;6.772;2023-04-06T12:04:35;15.07;;;9.83;;
5507;SDS011;2776;51.046;6.772;2023-04-06T12:07:03;12.67;;;8.87;;
5507;SDS011;2776;51.046;6.772;2023-04-06T12:09:32;14.30;;;10.17;;
5507;SDS011;2776;51.046;6.772;2023-04-06T12:11:59;14.23;;;10.87;;
5507;SDS011;2776;51.046;6.772;2023-04-06T12:14:26;15.23;;;10.50;;
5507;SDS011;2776;51.046;6.772;2023-04-06T12:16:53;15.43;;;10.40;;
5507;SDS011;2776;51.046;6.772;2023-04-06T12:19:20;12.80;;;10.03;;
5507;SDS011;2776;51.046;6.772;2023-04-06T12:21:50;13.60;;;8.80;;
5507;SDS011;2776;51.046;6.772;2023-04-06T12:24:17;11.83;;;9.07;;
5507;SDS011;2776;51.046;6.772;2023-04-06T12:26:45;11.00;;;8.17;;
5507;SDS011;2776;51.046;6.772;2023-04-06T12:29:12;12.47;;;9.17;;
5507;SDS011;2776;51.046;6.772;2023-04-06T12:31:39;11.53;;;8.97;;
5507;SDS011;2776;51.046;6.772;2023-04-06T12:34:08;10.17;;;8.03;;
5507;SDS011;2776;51.046;6.772;2023-04-06T12:36:34;10.67;;;7.90;;
5507;SDS011;2776;51.046;6.772;2023-04-06T12:39:03;12.80;;;8.77;;
5507;SDS011;2776;51.046;6.772;2023-04-06T12:41:30;11.50;;;8.67;;
5507;SDS011;2776;51.046;6.772;2023-04-06T12:43:59;11.27;;;7.63;;
5507;SDS011;2776;51.046;6.772;2023-04-06T12:46:27;11.37;;;7.50;;
5507;SDS011;2776;51.046;6.772;2023-04-06T12:48:55;10.87;;;7.37;;
5507;SDS011;2776;51.046;6.772;2023-04-06T12:51:24;8.70;;;5.83;;
5507;SDS011;2776;51.046;6.772;2023-04-06T12:53:53;11.30;;;6.07;;
5507;SDS011;2776;51.046;6.772;2023-04-06T12:56:20;8.27;;;5.27;;
5507;SDS011;2776;51.046;6.772;2023-04-06T12:58:47;6.93;;;5.40;;
5507;SDS011;2776;51.046;6.772;2023-04-06T13:01:18;9.63;;;5.93;;
5507;SDS011;2776;51.046;6.772;2023-04-06T13:03:45;7.80;;;5.90;;
5507;SDS011;2776;51.046;6.772;2023-04-06T13:06:12;8.13;;;6.17;;
5507;SDS011;2776;51.046;6.772;2023-04-06T13:08:40;9.67;;;5.73;;
5507;SDS011;2776;51.046;6.772;2023-04-06T13:11:07;9.30;;;5.80;;
5507;SDS011;2776;51.046;6.772;2023-04-06T13:13:34;9.60;;;5.83;;
5507;SDS011;2776;51.046;6.772;2023-04-06T13:16:02;8.40;;;6.27;;
5507;SDS011;2776;51.046;6.772;2023-04-06T13:18:31;7.23;;;5.60;;
5507;SDS011;2776;51.046;6.772;2023-04-06T13:20:59;9.43;;;5.30;;
5507;SDS011;2776;51.046;6.772;2023-04-06T13:23:26;7.13;;;5.33;;
5507;SDS011;2776;51.046;6.772;2023-04-06T13:25:59;6.53;;;5.27;;
5507;SDS011;2776;51.046;6.772;2023-04-06T13:28:28;9.23;;;5.73;;
5507;SDS011;2776;51.046;6.772;2023-04-06T13:30:55;8.57;;;5.90;;
5507;SDS011;2776;51.046;6.772;2023-04-06T13:33:24;9.63;;;6.00;;
5507;SDS011;2776;51.046;6.772;2023-04-06T13:35:52;8.90;;;6.30;;
5507;SDS011;2776;51.046;6.772;2023-04-06T13:38:19;7.10;;;5.27;;
5507;SDS011;2776;51.046;6.772;2023-04-06T13:40:46;7.13;;;4.57;;
5507;SDS011;2776;51.046;6.772;2023-04-06T13:43:13;4.73;;;4.20;;
5507;SDS011;2776;51.046;6.772;2023-04-06T13:45:40;7.70;;;4.63;;
5507;SDS011;2776;51.046;6.772;2023-04-06T13:48:07;8.83;;;4.73;;
5507;SDS011;2776;51.046;6.772;2023-04-06T13:50:33;6.30;;;4.77;;
5507;SDS011;2776;51.046;6.772;2023-04-06T13:53:02;7.40;;;5.00;;
5507;SDS011;2776;51.046;6.772;2023-04-06T13:55:28;7.67;;;5.10;;
5507;SDS011;2776;51.046;6.772;2023-04-06T13:57:56;6.43;;;5.07;;
5507;SDS011;2776;51.046;6.772;2023-04-06T14:00:23;7.77;;;5.20;;
5507;SDS011;2776;51.046;6.772;2023-04-06T14:02:50;6.47;;;5.50;;
5507;SDS011;2776;51.046;6.772;2023-04-06T14:05:17;9.23;;;5.90;;
5507;SDS011;2776;51.046;6.772;2023-04-06T14:07:44;7.83;;;5.97;;
5507;SDS011;2776;51.046;6.772;2023-04-06T14:10:12;7.27;;;6.03;;
5507;SDS011;2776;51.046;6.772;2023-04-06T14:12:40;8.93;;;6.13;;
5507;SDS011;2776;51.046;6.772;2023-04-06T14:15:07;8.67;;;6.20;;
5507;SDS011;2776;51.046;6.772;2023-04-06T14:17:35;8.50;;;6.37;;
5507;SDS011;2776;51.046;6.772;2023-04-06T14:20:02;9.40;;;6.63;;
5507;SDS011;2776;51.046;6.772;2023-04-06T14:22:30;9.13;;;6.47;;
5507;SDS011;2776;51.046;6.772;2023-04-06T14:24:56;7.70;;;6.17;;
5507;SDS011;2776;51.046;6.772;2023-04-06T14:27:24;7.83;;;6.20;;
5507;SDS011;2776;51.046;6.772;2023-04-06T14:29:51;8.40;;;6.83;;
5507;SDS011;2776;51.046;6.772;2023-04-06T14:32:19;7.10;;;5.83;;
5507;SDS011;2776;51.046;6.772;2023-04-06T14:34:46;7.57;;;6.23;;
5507;SDS011;2776;51.046;6.772;2023-04-06T14:37:12;6.37;;;5.13;;
5507;SDS011;2776;51.046;6.772;2023-04-06T14:39:39;5.80;;;5.20;;
5507;SDS011;2776;51.046;6.772;2023-04-06T14:42:06;6.00;;;4.77;;
5507;SDS011;2776;51.046;6.772;2023-04-06T14:44:34;6.13;;;4.60;;
5507;SDS011;2776;51.046;6.772;2023-04-06T14:47:01;5.87;;;4.87;;
5507;SDS011;2776;51.046;6.772;2023-04-06T14:49:28;6.30;;;5.00;;
5507;SDS011;2776;51.046;6.772;2023-04-06T14:51:56;6.73;;;5.47;;
5507;SDS011;2776;51.046;6.772;2023-04-06T14:54:23;5.93;;;5.33;;
5507;SDS011;2776;51.046;6.772;2023-04-06T14:56:50;5.50;;;5.00;;
5507;SDS011;2776;51.046;6.772;2023-04-06T14:59:17;6.37;;;5.20;;